createdAt,value
2022-08-03T00:00:30.694Z,21.82
2022-08-03T00:03:15.548Z,21.75
2022-08-03T00:06:03.858Z,21.73
2022-08-03T00:08:49.825Z,22.13
2022-08-03T00:11:34.631Z,22.49
2022-08-03T00:14:19.405Z,22.55
2022-08-03T00:17:04.187Z,22.59
2022-08-03T00:19:48.769Z,22.53
2022-08-03T00:22:33.595Z,22.43
2022-08-03T00:25:18.401Z,22.29
2022-08-03T00:28:03.148Z,22.25
2022-08-03T00:30:48.049Z,22.16
2022-08-03T00:33:58.761Z,22.07
2022-08-03T00:36:38.191Z,21.92
2022-08-03T00:39:23.089Z,21.84
2022-08-03T00:42:07.859Z,21.75
2022-08-03T00:44:52.771Z,21.79
2022-08-03T00:47:37.508Z,22.00
2022-08-03T00:50:22.305Z,22.24
2022-08-03T00:53:06.941Z,22.20
2022-08-03T00:55:51.885Z,22.23
2022-08-03T00:58:36.528Z,22.12
2022-08-03T01:01:21.404Z,22.15
2022-08-03T01:04:06.194Z,22.06
2022-08-03T01:06:50.875Z,21.98
2022-08-03T01:09:35.724Z,21.91
2022-08-03T01:12:20.546Z,21.85
2022-08-03T01:15:05.349Z,21.77
2022-08-03T01:17:50.092Z,21.78
2022-08-03T01:20:35.058Z,21.68
2022-08-03T01:23:19.773Z,21.60
2022-08-03T01:26:07.099Z,21.63
2022-08-03T01:28:51.906Z,21.67
2022-08-03T01:31:36.619Z,21.78
2022-08-03T01:34:41.492Z,21.66
2022-08-03T01:37:26.161Z,21.69
2022-08-03T01:40:11.380Z,21.61
2022-08-03T01:42:56.122Z,21.57
2022-08-03T01:45:40.786Z,21.58
2022-08-03T01:48:25.569Z,21.45
2022-08-03T01:51:10.272Z,21.37
2022-08-03T01:53:55.021Z,21.38
2022-08-03T01:56:39.719Z,21.30
2022-08-03T01:59:24.606Z,21.34
2022-08-03T02:02:28.106Z,21.30
2022-08-03T02:05:14.090Z,21.29
2022-08-03T02:07:58.892Z,21.23
2022-08-03T02:10:43.539Z,21.27
2022-08-03T02:13:28.423Z,21.30
2022-08-03T02:16:12.913Z,21.27
2022-08-03T02:18:57.813Z,21.26
2022-08-03T02:21:56.426Z,21.23
2022-08-03T02:24:45.877Z,21.23
2022-08-03T02:27:38.414Z,21.16
2022-08-03T02:30:26.444Z,21.18
2022-08-03T02:33:11.370Z,21.32
2022-08-03T02:35:56.129Z,21.44
2022-08-03T02:38:41.025Z,21.84
2022-08-03T02:41:25.739Z,21.75
2022-08-03T02:44:11.070Z,21.63
2022-08-03T02:46:55.872Z,21.57
2022-08-03T02:49:50.650Z,21.41
2022-08-03T02:52:36.630Z,21.37
2022-08-03T02:55:21.519Z,21.56
2022-08-03T02:58:06.167Z,21.51
2022-08-03T03:00:51.049Z,21.42
2022-08-03T03:03:43.957Z,21.30
2022-08-03T03:06:30.169Z,21.18
2022-08-03T03:09:15.160Z,21.07
2022-08-03T03:12:00.041Z,21.04
2022-08-03T03:14:44.791Z,20.93
2022-08-03T03:17:29.671Z,20.85
2022-08-03T03:20:14.367Z,20.76
2022-08-03T03:22:59.242Z,20.67
2022-08-03T03:25:44.003Z,20.65
2022-08-03T03:28:28.774Z,20.66
2022-08-03T03:31:13.541Z,20.66
2022-08-03T03:33:58.310Z,20.66
2022-08-03T03:36:43.049Z,20.80
2022-08-03T03:39:27.795Z,20.82
2022-08-03T03:42:12.687Z,20.80
2022-08-03T03:44:57.671Z,20.82
2022-08-03T03:47:44.548Z,20.79
2022-08-03T03:50:29.774Z,20.75
2022-08-03T03:53:14.584Z,20.68
2022-08-03T03:56:02.576Z,20.59
2022-08-03T03:58:48.043Z,20.51
2022-08-03T04:01:32.797Z,20.48
2022-08-03T04:04:17.552Z,20.43
2022-08-03T04:07:02.398Z,20.36
2022-08-03T04:09:47.192Z,20.47
2022-08-03T04:12:31.909Z,20.48
2022-08-03T04:15:16.800Z,20.47
2022-08-03T04:18:01.610Z,20.55
2022-08-03T04:20:46.565Z,20.64
2022-08-03T04:23:32.900Z,20.68
2022-08-03T04:26:17.660Z,20.64
2022-08-03T04:29:02.569Z,20.60
2022-08-03T04:31:47.422Z,20.57
2022-08-03T04:34:32.143Z,20.60
2022-08-03T04:37:16.859Z,20.59
2022-08-03T04:40:01.690Z,20.65
2022-08-03T04:42:46.933Z,20.66
2022-08-03T04:45:31.755Z,20.70
2022-08-03T04:48:16.476Z,20.75
2022-08-03T04:51:01.307Z,20.77
2022-08-03T04:53:46.099Z,20.72
2022-08-03T04:56:31.045Z,20.70
2022-08-03T04:59:15.798Z,20.65
2022-08-03T05:02:00.659Z,20.68
2022-08-03T05:04:45.459Z,20.72
2022-08-03T05:07:36.620Z,21.08
2022-08-03T05:10:21.863Z,21.26
2022-08-03T05:13:06.706Z,21.43
2022-08-03T05:15:51.438Z,21.62
2022-08-03T05:18:36.194Z,21.63
2022-08-03T05:21:20.807Z,21.65
2022-08-03T05:24:05.635Z,21.56
2022-08-03T05:26:50.374Z,21.54
2022-08-03T05:29:35.134Z,21.46
2022-08-03T05:32:20.008Z,21.36
2022-08-03T05:36:01.258Z,21.21
2022-08-03T05:38:10.074Z,23.89
2022-08-03T05:40:57.561Z,27.07
2022-08-03T05:44:00.131Z,29.09
2022-08-03T05:46:44.876Z,30.38
2022-08-03T05:49:29.639Z,32.13
2022-08-03T05:52:21.510Z,33.81
2022-08-03T05:55:06.692Z,35.15
2022-08-03T05:57:51.429Z,36.25
2022-08-03T06:00:40.086Z,37.06
2022-08-03T06:03:24.658Z,37.88
2022-08-03T06:06:09.505Z,38.09
2022-08-03T06:08:54.239Z,38.96
2022-08-03T06:11:39.008Z,39.58
2022-08-03T06:14:23.670Z,39.83
2022-08-03T06:17:08.444Z,39.88
2022-08-03T06:19:53.139Z,39.77
2022-08-03T06:22:49.097Z,39.34
2022-08-03T06:25:36.520Z,39.92
2022-08-03T06:28:52.376Z,40.51
2022-08-03T06:31:26.110Z,40.58
2022-08-03T06:34:32.439Z,40.63
2022-08-03T06:37:19.942Z,40.30
2022-08-03T06:40:04.761Z,40.50
2022-08-03T06:42:49.566Z,40.65
2022-08-03T06:45:35.432Z,40.57
2022-08-03T06:48:20.125Z,40.54
2022-08-03T06:51:04.935Z,40.81
2022-08-03T06:53:51.727Z,40.40
2022-08-03T06:56:36.460Z,40.53
2022-08-03T07:00:06.399Z,40.72
2022-08-03T07:02:28.235Z,41.56
2022-08-03T07:05:13.589Z,40.82
2022-08-03T07:07:58.387Z,41.37
2022-08-03T07:10:43.015Z,42.10
2022-08-03T07:13:27.834Z,41.56
2022-08-03T07:16:12.557Z,41.34
2022-08-03T07:18:57.384Z,41.95
2022-08-03T07:21:42.092Z,42.41
2022-08-03T07:24:26.861Z,43.14
2022-08-03T07:27:13.569Z,43.08
2022-08-03T07:29:58.361Z,43.15
2022-08-03T07:32:49.853Z,42.54
2022-08-03T07:35:35.529Z,41.58
2022-08-03T07:38:21.220Z,40.42
2022-08-03T07:41:06.570Z,38.49
2022-08-03T07:43:51.355Z,36.20
2022-08-03T07:46:36.071Z,34.41
2022-08-03T07:49:20.820Z,33.29
2022-08-03T07:52:05.541Z,32.53
2022-08-03T07:54:50.373Z,31.89
2022-08-03T07:57:35.053Z,31.21
2022-08-03T08:00:20.018Z,30.77
2022-08-03T08:03:05.056Z,30.34
2022-08-03T08:05:49.752Z,29.85
2022-08-03T08:08:34.421Z,29.67
2022-08-03T08:11:19.126Z,29.73
2022-08-03T08:14:04.028Z,29.67
2022-08-03T08:16:48.694Z,29.60
2022-08-03T08:19:33.402Z,29.67
2022-08-03T08:22:30.039Z,29.51
2022-08-03T08:25:16.052Z,29.73
2022-08-03T08:28:22.334Z,29.41
2022-08-03T08:31:09.038Z,29.33
2022-08-03T08:34:09.493Z,28.82
2022-08-03T08:36:54.420Z,28.69
2022-08-03T08:39:39.283Z,28.79
2022-08-03T08:42:24.032Z,28.75
2022-08-03T08:45:08.891Z,28.71
2022-08-03T08:47:58.116Z,28.91
2022-08-03T08:50:45.188Z,28.77
2022-08-03T08:53:29.910Z,28.73
2022-08-03T08:56:14.627Z,28.97
2022-08-03T08:58:59.276Z,29.15
2022-08-03T09:01:44.144Z,29.28
2022-08-03T09:04:29.495Z,29.39
2022-08-03T09:07:21.077Z,29.42
2022-08-03T09:10:11.352Z,29.35
2022-08-03T09:12:58.269Z,29.32
2022-08-03T09:15:43.078Z,29.22
2022-08-03T09:18:45.978Z,29.14
2022-08-03T09:21:32.603Z,29.32
2022-08-03T09:24:37.319Z,29.16
2022-08-03T09:27:23.179Z,29.28
2022-08-03T09:30:33.081Z,29.24
2022-08-03T09:33:12.849Z,29.26
2022-08-03T09:35:58.012Z,29.27
2022-08-03T09:38:43.239Z,29.28
2022-08-03T09:41:28.005Z,29.48
2022-08-03T09:44:24.581Z,29.56
2022-08-03T09:47:10.623Z,29.37
2022-08-03T09:49:55.271Z,29.31
2022-08-03T09:52:49.317Z,29.40
2022-08-03T09:56:36.494Z,29.50
2022-08-03T09:58:39.863Z,29.67
2022-08-03T10:01:25.489Z,29.84
2022-08-03T10:04:10.379Z,29.97
2022-08-03T10:06:55.212Z,29.89
2022-08-03T10:09:39.924Z,29.63
2022-08-03T10:12:24.840Z,29.74
2022-08-03T10:15:10.056Z,29.86
2022-08-03T10:18:14.917Z,29.76
2022-08-03T10:20:59.644Z,29.82
2022-08-03T10:23:44.412Z,29.80
2022-08-03T10:26:29.246Z,29.69
2022-08-03T10:29:14.061Z,29.79
2022-08-03T10:31:58.918Z,29.96
2022-08-03T10:34:44.794Z,29.93
2022-08-03T10:37:29.883Z,29.89
2022-08-03T10:40:27.942Z,29.64
2022-08-03T10:43:19.620Z,29.71
2022-08-03T10:46:04.448Z,29.74
2022-08-03T10:48:49.264Z,29.80
2022-08-03T10:51:33.907Z,29.87
2022-08-03T10:54:18.869Z,29.83
2022-08-03T10:57:14.144Z,29.93
2022-08-03T11:00:07.873Z,29.93
2022-08-03T11:02:52.721Z,30.03
2022-08-03T11:05:37.458Z,30.11
2022-08-03T11:08:22.326Z,29.99
2022-08-03T11:11:07.108Z,29.99
2022-08-03T11:13:51.974Z,29.99
2022-08-03T11:16:36.749Z,30.02
2022-08-03T11:19:21.496Z,29.91
2022-08-03T11:22:06.452Z,29.85
2022-08-03T11:24:51.232Z,29.92
2022-08-03T11:27:36.081Z,30.13
2022-08-03T11:30:20.716Z,30.19
2022-08-03T11:33:12.415Z,30.02
2022-08-03T11:35:57.228Z,29.79
2022-08-03T11:38:42.055Z,29.93
2022-08-03T11:41:26.976Z,30.11
2022-08-03T11:44:11.622Z,30.00
2022-08-03T11:46:57.022Z,30.24
2022-08-03T11:49:41.882Z,30.22
2022-08-03T11:52:28.769Z,30.26
2022-08-03T11:55:13.819Z,30.29
2022-08-03T11:59:01.746Z,30.20
2022-08-03T12:01:03.320Z,30.20
2022-08-03T12:03:48.073Z,30.38
2022-08-03T12:06:33.167Z,30.28
2022-08-03T12:09:17.890Z,30.35
2022-08-03T12:12:06.140Z,30.11
2022-08-03T12:14:52.509Z,30.39
2022-08-03T12:17:37.844Z,30.39
2022-08-03T12:20:34.400Z,30.38
2022-08-03T12:23:19.921Z,30.49
2022-08-03T12:26:04.632Z,30.68
2022-08-03T12:28:50.037Z,30.56
2022-08-03T12:31:34.977Z,30.80
2022-08-03T12:34:19.729Z,30.90
2022-08-03T12:37:04.674Z,30.98
2022-08-03T12:40:10.523Z,31.04
2022-08-03T12:42:55.733Z,31.13
2022-08-03T12:45:40.524Z,31.09
2022-08-03T12:48:25.409Z,31.20
2022-08-03T12:51:12.796Z,31.32
2022-08-03T12:53:57.527Z,31.38
2022-08-03T12:56:42.324Z,31.37
2022-08-03T12:59:32.444Z,31.47
2022-08-03T13:02:19.870Z,31.62
2022-08-03T13:05:08.457Z,31.53
2022-08-03T13:07:53.377Z,31.50
2022-08-03T13:10:40.516Z,31.52
2022-08-03T13:13:25.401Z,31.60
2022-08-03T13:16:10.328Z,31.49
2022-08-03T13:18:55.083Z,31.35
2022-08-03T13:22:01.385Z,31.44
2022-08-03T13:24:44.759Z,31.42
2022-08-03T13:28:03.619Z,31.47
2022-08-03T13:30:34.539Z,31.49
2022-08-03T13:33:19.482Z,31.44
2022-08-03T13:36:04.255Z,31.57
2022-08-03T13:38:49.084Z,31.45
2022-08-03T13:41:34.485Z,31.57
2022-08-03T13:44:29.721Z,31.56
2022-08-03T13:47:14.817Z,31.62
2022-08-03T13:50:02.490Z,31.60
2022-08-03T13:52:47.815Z,31.68
2022-08-03T13:55:32.667Z,31.61
2022-08-03T13:58:17.569Z,31.58
2022-08-03T14:01:03.868Z,31.57
2022-08-03T14:03:48.711Z,31.53
2022-08-03T14:06:33.482Z,31.54
2022-08-03T14:09:18.274Z,31.48
2022-08-03T14:12:07.830Z,31.56
2022-08-03T14:14:55.992Z,31.40
2022-08-03T14:17:50.051Z,31.32
2022-08-03T14:20:36.587Z,31.38
2022-08-03T14:23:22.632Z,31.32
2022-08-03T14:26:07.556Z,31.40
2022-08-03T14:28:52.421Z,31.35
2022-08-03T14:32:12.116Z,31.29
2022-08-03T14:34:41.888Z,31.47
2022-08-03T14:37:26.729Z,31.46
2022-08-03T14:40:11.531Z,31.56
2022-08-03T14:42:56.768Z,31.55
2022-08-03T14:45:41.597Z,31.47
2022-08-03T14:50:31.702Z,31.56
2022-08-03T14:51:31.841Z,31.54
2022-08-03T14:54:16.534Z,31.52
2022-08-03T14:57:03.316Z,31.44
2022-08-03T14:59:56.064Z,31.52
2022-08-03T15:02:42.151Z,31.29
2022-08-03T15:05:26.828Z,31.16
2022-08-03T15:08:11.715Z,31.23
2022-08-03T15:10:56.374Z,31.28
2022-08-03T15:13:41.125Z,31.22
2022-08-03T15:16:30.766Z,31.20
2022-08-03T15:20:01.077Z,30.95
2022-08-03T15:22:25.220Z,30.92
2022-08-03T15:26:29.209Z,30.88
2022-08-03T15:28:24.333Z,30.90
2022-08-03T15:31:09.042Z,30.85
2022-08-03T15:33:53.793Z,30.91
2022-08-03T15:36:38.625Z,30.97
2022-08-03T15:39:23.408Z,30.93
2022-08-03T15:42:08.426Z,31.04
2022-08-03T15:44:54.527Z,31.04
2022-08-03T15:47:39.502Z,31.10
2022-08-03T15:50:24.266Z,30.97
2022-08-03T15:53:08.983Z,30.98
2022-08-03T15:55:53.935Z,30.97
2022-08-03T15:59:09.356Z,30.99
2022-08-03T16:01:43.810Z,30.78
2022-08-03T16:04:28.988Z,30.86
2022-08-03T16:07:13.712Z,30.80
2022-08-03T16:09:58.494Z,30.70
2022-08-03T16:12:43.252Z,30.66
2022-08-03T16:15:27.913Z,30.71
2022-08-03T16:18:12.779Z,30.66
2022-08-03T16:20:57.345Z,30.70
2022-08-03T16:23:42.122Z,30.66
2022-08-03T16:26:31.960Z,30.53
2022-08-03T16:29:22.337Z,30.43
2022-08-03T16:32:09.560Z,30.28
2022-08-03T16:34:54.801Z,30.08
2022-08-03T16:37:39.661Z,30.01
2022-08-03T16:40:24.817Z,30.01
2022-08-03T16:43:09.535Z,29.85
2022-08-03T16:46:04.034Z,29.78
2022-08-03T16:48:48.735Z,29.74
2022-08-03T16:51:40.434Z,29.79
2022-08-03T16:54:35.427Z,29.59
2022-08-03T16:57:55.709Z,29.55
2022-08-03T17:00:34.002Z,29.42
2022-08-03T17:03:26.440Z,29.21
2022-08-03T17:06:12.194Z,29.07
2022-08-03T17:08:57.439Z,29.24
2022-08-03T17:11:46.705Z,29.36
2022-08-03T17:14:32.555Z,29.39
2022-08-03T17:17:17.494Z,29.37
2022-08-03T17:20:05.491Z,29.15
2022-08-03T17:22:52.624Z,29.29
2022-08-03T17:25:39.699Z,29.29
2022-08-03T17:28:50.617Z,29.22
2022-08-03T17:31:46.678Z,29.15
2022-08-03T17:34:34.177Z,29.02
2022-08-03T17:37:50.497Z,29.00
2022-08-03T17:40:24.250Z,28.99
2022-08-03T17:44:13.578Z,28.98
2022-08-03T17:46:15.625Z,29.05
2022-08-03T17:49:04.821Z,29.09
2022-08-03T17:52:10.062Z,29.13
2022-08-03T17:55:55.170Z,28.88
2022-08-03T17:58:07.341Z,28.84
2022-08-03T18:00:52.535Z,28.76
2022-08-03T18:03:58.725Z,28.75
2022-08-03T18:06:55.669Z,28.59
2022-08-03T18:10:06.317Z,28.41
2022-08-03T18:12:46.360Z,28.46
2022-08-03T18:15:37.182Z,28.41
2022-08-03T18:18:32.501Z,28.55
2022-08-03T18:21:17.814Z,28.56
2022-08-03T18:24:02.652Z,28.62
2022-08-03T18:26:47.882Z,28.62
2022-08-03T18:29:33.557Z,28.56
2022-08-03T18:32:19.515Z,28.24
2022-08-03T18:35:04.575Z,28.28
2022-08-03T18:37:51.823Z,28.18
2022-08-03T18:40:37.097Z,28.25
2022-08-03T18:43:47.278Z,28.32
2022-08-03T18:46:32.767Z,28.22
2022-08-03T18:49:18.996Z,28.14
2022-08-03T18:52:03.685Z,28.07
2022-08-03T18:55:02.320Z,28.04
2022-08-03T18:57:49.497Z,28.00
2022-08-03T19:00:54.071Z,27.96
2022-08-03T19:03:43.174Z,27.91
2022-08-03T19:06:28.571Z,27.87
2022-08-03T19:09:14.752Z,27.84
2022-08-03T19:12:12.431Z,27.85
2022-08-03T19:15:04.707Z,27.82
2022-08-03T19:17:52.944Z,27.74
2022-08-03T19:20:38.133Z,27.66
2022-08-03T19:23:22.871Z,27.63
2022-08-03T19:26:07.611Z,27.60
2022-08-03T19:29:15.344Z,27.50
2022-08-03T19:32:00.419Z,27.41
2022-08-03T19:34:46.613Z,27.41
2022-08-03T19:37:38.292Z,27.34
2022-08-03T19:40:24.788Z,27.37
2022-08-03T19:43:11.158Z,27.40
2022-08-03T19:46:04.916Z,27.33
2022-08-03T19:48:51.870Z,27.20
2022-08-03T19:52:03.013Z,27.16
2022-08-03T19:54:52.734Z,27.23
2022-08-03T19:57:39.192Z,27.27
2022-08-03T20:00:26.499Z,27.29
2022-08-03T20:03:19.705Z,27.30
2022-08-03T20:06:06.810Z,27.34
2022-08-03T20:08:52.134Z,27.30
2022-08-03T20:11:43.895Z,27.34
2022-08-03T20:14:30.437Z,27.36
2022-08-03T20:17:21.151Z,27.40
2022-08-03T20:20:06.410Z,27.30
2022-08-03T20:22:51.629Z,27.11
2022-08-03T20:25:37.947Z,27.09
2022-08-03T20:28:26.807Z,27.00
2022-08-03T20:31:11.790Z,26.95
2022-08-03T20:33:57.654Z,26.83
2022-08-03T20:36:42.359Z,26.68
2022-08-03T20:39:27.239Z,26.48
2022-08-03T20:42:12.577Z,26.35
2022-08-03T20:45:04.762Z,26.24
2022-08-03T20:47:51.635Z,26.15
2022-08-03T20:50:36.532Z,26.07
2022-08-03T20:53:56.787Z,25.98
2022-08-03T20:56:26.015Z,25.84
2022-08-03T20:59:15.034Z,25.84
2022-08-03T21:02:00.113Z,25.74
2022-08-03T21:04:44.955Z,25.90
2022-08-03T21:08:03.975Z,25.92
2022-08-03T21:10:37.943Z,25.79
2022-08-03T21:13:24.233Z,25.70
2022-08-03T21:16:14.154Z,25.61
2022-08-03T21:19:00.248Z,25.48
2022-08-03T21:21:44.954Z,25.53
2022-08-03T21:24:29.751Z,25.73
2022-08-03T21:27:14.494Z,25.79
2022-08-03T21:29:59.429Z,25.82
2022-08-03T21:32:44.207Z,25.92
2022-08-03T21:35:31.397Z,26.01
2022-08-03T21:38:16.221Z,26.00
2022-08-03T21:41:01.008Z,25.87
2022-08-03T21:43:45.876Z,25.92
2022-08-03T21:46:30.677Z,25.98
2022-08-03T21:50:04.303Z,25.99
2022-08-03T21:52:20.606Z,25.83
2022-08-03T21:55:05.338Z,25.70
2022-08-03T21:57:50.008Z,25.58
2022-08-03T22:00:34.788Z,25.52
2022-08-03T22:03:19.541Z,25.39
2022-08-03T22:06:05.771Z,25.33
2022-08-03T22:08:50.911Z,25.33
2022-08-03T22:11:35.802Z,25.30
2022-08-03T22:14:20.507Z,25.21
2022-08-03T22:17:07.141Z,25.21
2022-08-03T22:19:51.931Z,25.21
2022-08-03T22:22:36.955Z,25.20
2022-08-03T22:25:21.810Z,25.20
2022-08-03T22:28:06.481Z,25.14
2022-08-03T22:30:51.250Z,25.09
2022-08-03T22:33:35.858Z,25.05
2022-08-03T22:36:20.607Z,24.92
2022-08-03T22:39:05.399Z,24.89
2022-08-03T22:41:50.591Z,24.84
2022-08-03T22:44:35.256Z,24.72
2022-08-03T22:47:22.754Z,24.67
2022-08-03T22:50:31.926Z,24.73
2022-08-03T22:53:13.147Z,24.81
2022-08-03T22:55:57.825Z,24.75
2022-08-03T22:58:42.738Z,24.69
2022-08-03T23:01:27.433Z,24.62
2022-08-03T23:04:12.444Z,24.53
2022-08-03T23:06:57.406Z,24.51
2022-08-03T23:09:42.119Z,24.46
2022-08-03T23:12:26.816Z,24.43
2022-08-03T23:15:11.540Z,24.41
2022-08-03T23:17:57.395Z,24.39
2022-08-03T23:20:44.760Z,24.33
2022-08-03T23:23:44.005Z,24.36
2022-08-03T23:26:29.976Z,24.26
2022-08-03T23:29:15.509Z,24.26
2022-08-03T23:32:00.514Z,24.25
2022-08-03T23:34:45.330Z,24.24
2022-08-03T23:37:29.966Z,24.22
2022-08-03T23:40:14.592Z,24.21
2022-08-03T23:42:59.502Z,24.19
2022-08-03T23:45:44.173Z,24.19
2022-08-03T23:48:29.068Z,24.19
2022-08-03T23:51:13.840Z,24.12
2022-08-03T23:54:01.903Z,24.02
2022-08-03T23:56:47.279Z,24.08
2022-08-03T23:59:32.005Z,24.06
